CMA CGM Homere — MQBL6 — position and weather

sailwx.info

Track history (hours):
 
Tides and Currents Weather Stations Pressure Air Temp Water Temp Dewpoint Dewpoint Depression Visibility Wind Speed Wind Dir Waves Ship Positions

CMA CGM Homere

Last reported at 2016-Jun-28 10:33 UTC. Time now 2016-Jun-28 11:32 UTC.
Position N 35°31' E 015°49'.

Length 170 m; draft 9.6 m.

Type: Ship (hazmat cat A). MMSI: 235052314.

Date/timePositionNaut miles runAvg speedWind from/ knotsBaromVisibWave heightAir tempDewpointWater temp
2016-Jun-28 10:33N 35°31' E 015°49'1616.3
2016-Jun-28 09:33N 35°35' E 015°30'1616.3
2016-Jun-28 08:33N 35°39' E 015°10'1616.0
2016-Jun-28 07:33N 35°44' E 014°51'1413.8
2016-Jun-28 06:33N 35°48' E 014°35'3 1.2
2016-Jun-28 04:31N 35°49' E 014°32'0 0.0
2016-Jun-28 03:31N 35°49' E 014°32'0 0.0
2016-Jun-28 02:28N 35°49' E 014°32'0 0.0
2016-Jun-28 01:31N 35°49' E 014°32'0 0.0
2016-Jun-28 00:31N 35°49' E 014°32'0 0.0
2016-Jun-27 23:31N 35°49' E 014°32'0 0.0
2016-Jun-27 22:31N 35°49' E 014°32'0 0.0
2016-Jun-27 21:31N 35°49' E 014°32'0 0.0
2016-Jun-27 20:28N 35°49' E 014°32'0 0.0
2016-Jun-27 19:31N 35°49' E 014°32'0 0.0
2016-Jun-27 18:28N 35°49' E 014°32'0 0.0
2016-Jun-27 17:31N 35°49' E 014°32'0 0.0
2016-Jun-27 16:25N 35°49' E 014°32'0 0.0
2016-Jun-27 15:31N 35°49' E 014°32'0 0.0
2016-Jun-27 14:22N 35°49' E 014°32'0 0.0
2016-Jun-27 13:31N 35°49' E 014°32'4 4.0
2016-Jun-27 12:33N 35°50' E 014°37'1212.4
2016-Jun-27 11:34N 36°01' E 014°31'1413.7
2016-Jun-27 10:33N 36°09' E 014°17'1313.2
2016-Jun-27 09:33N 36°15' E 014°03'1313.2
2016-Jun-27 08:34N 36°20' E 013°48'1313.3
2016-Jun-27 07:34N 36°26' E 013°33'1413.6
2016-Jun-27 06:34N 36°32' E 013°18'1514.8
2016-Jun-27 05:33N 36°38' E 013°01'1515.5
2016-Jun-27 04:33N 36°45' E 012°44'2115.8
2016-Jun-27 03:14N 36°54' E 012°20'2816.3
2016-Jun-27 01:32N 37°07' E 011°49'1716.3
2016-Jun-27 00:31N 37°14' E 011°31'1616.2
2016-Jun-26 23:33N 37°22' E 011°14'1615.6
2016-Jun-26 22:32N 37°26' E 010°55'1515.6
2016-Jun-26 21:33N 37°31' E 010°36'1615.7
2016-Jun-26 20:32N 37°34' E 010°16'1515.5
2016-Jun-26 19:33N 37°35' E 009°57'1615.5
2016-Jun-26 18:31N 37°37' E 009°37'17915.0
2016-Jun-26 06:33N 37°32' E 005°51'1413.8
2016-Jun-26 05:33N 37°31' E 005°33'1313.0
2016-Jun-26 04:33N 37°30' E 005°17'1413.5
2016-Jun-26 03:29N 37°28' E 004°59'1313.7
2016-Jun-26 02:33N 37°25' E 004°43'1414.0
2016-Jun-26 01:33N 37°23' E 004°26'1514.2
2016-Jun-26 00:31N 37°19' E 004°08'1414.3
2016-Jun-25 23:31N 37°15' E 003°51'1413.8
2016-Jun-25 22:29N 37°12' E 003°33'1213.5
2016-Jun-25 21:33N 37°09' E 003°18'1312.8
2016-Jun-25 20:34N 37°06' E 003°02'1313.3
2016-Jun-25 19:33N 37°04' E 002°46'1414.1
2016-Jun-25 18:33N 37°01' E 002°29'1414.3
2016-Jun-25 17:33N 36°58' E 002°11'1414.5
2016-Jun-25 16:33N 36°54' E 001°54'1414.2
2016-Jun-25 15:33N 36°51' E 001°36'1414.3
2016-Jun-25 14:33N 36°47' E 001°19'1414.4
2016-Jun-25 13:33N 36°44' E 001°01'1514.4
2016-Jun-25 12:33N 36°41' E 000°44'1313.4
2016-Jun-25 11:33N 36°38' E 000°28'1413.9
2016-Jun-25 10:33N 36°34' E 000°11'1413.9
2016-Jun-25 09:32N 36°31' W 000°06'1414.0
2016-Jun-25 08:34N 36°28' W 000°23'1414.0
2016-Jun-25 07:33N 36°25' W 000°40'1514.2
2016-Jun-25 06:30N 36°21' W 000°58'1313.5
2016-Jun-25 05:32N 36°19' W 001°14'1313.4
2016-Jun-25 04:33N 36°16' W 001°30'1312.8
2016-Jun-25 03:33N 36°13' W 001°45'1612.5
2016-Jun-25 02:18N 36°09' W 002°04'1212.7
2016-Jun-25 01:23N 36°09' W 002°19'14314.1
2016-Jun-24 15:13N 35°59' W 005°15'1116.0
2016-Jun-24 14:33N 35°57' W 005°28'8015.8
2016-Jun-24 09:31N 36°02' W 007°06'2417.1
2016-Jun-24 08:07N 36°09' W 007°34'1017.2
2016-Jun-24 07:33N 36°11' W 007°46'5317.4
2016-Jun-24 04:31N 36°25' W 008°49'1617.0
2016-Jun-24 03:33N 36°31' W 009°09'2116.3
2016-Jun-24 02:17N 36°43' W 009°29'1316.6
2016-Jun-24 01:32N 36°54' W 009°37'1817.9
2016-Jun-24 00:33N 37°11' W 009°42'1818.4
2016-Jun-23 23:33N 37°29' W 009°48'1818.2
2016-Jun-23 22:33N 37°47' W 009°52'1918.2
2016-Jun-23 21:30N 38°05' W 009°57'1718.3
2016-Jun-23 20:33N 38°22' W 010°02'1818.0
2016-Jun-23 19:33N 38°40' W 010°07'55317.3
2016-Jun-22 11:33N 47°35' W 006°55'5618.7
2016-Jun-22 08:33N 48°24' W 006°16'3917.5
2016-Jun-22 06:20N 48°56' W 005°43'9613.8
2016-Jun-21 23:23N 49°44' W 003°36'1517.5
2016-Jun-21 22:33N 49°52' W 003°16'1616.1
2016-Jun-21 21:34N 49°59' W 002°54'1515.0
2016-Jun-21 20:34N 50°02' W 002°31'1614.2
2016-Jun-21 19:24N 50°03' W 002°05'2915.2
2016-Jun-21 17:31N 49°52' W 001°24'1616.3
2016-Jun-21 16:34N 49°45' W 001°02'1616.3
2016-Jun-21 15:34N 49°40' W 000°38'10 9.9
2016-Jun-21 14:33N 49°36' W 000°24'1010.2
2016-Jun-21 13:33N 49°32' W 000°10'1110.9
2016-Jun-21 12:33N 49°28' E 000°06'3 2.7
2016-Jun-21 11:31N 49°27' E 000°10'0 0.0
2016-Jun-21 10:31N 49°27' E 000°10'0 0.0
2016-Jun-21 09:31N 49°27' E 000°10'0 0.0
2016-Jun-21 08:31N 49°27' E 000°10'0 0.0
2016-Jun-21 07:31N 49°27' E 000°10'0 0.0
2016-Jun-21 06:31N 49°27' E 000°10'1 0.7
2016-Jun-21 04:33N 49°28' E 000°08'1110.6
2016-Jun-21 03:34N 49°32' W 000°07'8 7.9
2016-Jun-21 02:33N 49°35' W 000°18'10 9.8
2016-Jun-21 01:33N 49°43' W 000°27'10 9.9
2016-Jun-21 00:33N 49°51' W 000°35'7 7.2
2016-Jun-20 23:33N 49°56' W 000°27'1111.3
2016-Jun-20 22:34N 50°04' W 000°14'1212.3
2016-Jun-20 21:33N 50°15' W 000°04'1313.3
2016-Jun-20 20:34N 50°28' E 000°00'1414.0
2016-Jun-20 19:33N 50°32' E 000°21'1515.2
2016-Jun-20 18:33N 50°39' E 000°42'2416.3
2016-Jun-20 17:04N 50°53' E 001°14'816.5
2016-Jun-20 16:33N 50°59' E 001°23'1515.2
2016-Jun-20 15:33N 51°09' E 001°41'1414.0
2016-Jun-20 14:34N 51°20' E 001°54'1111.3
2016-Jun-20 13:34N 51°23' E 002°12'1312.8
2016-Jun-20 12:33N 51°23' E 002°32'1211.7
2016-Jun-20 11:34N 51°22' E 002°51'1111.0
2016-Jun-20 10:34N 51°24' E 003°08'1312.8
2016-Jun-20 09:34N 51°25' E 003°29'9 8.7
2016-Jun-20 08:34N 51°25' E 003°43'1010.1
2016-Jun-20 07:34N 51°26' E 003°59'1211.5
2016-Jun-20 06:33N 51°21' E 004°15'4 3.4
2016-Jun-20 05:31N 51°17' E 004°16'0 0.0
2016-Jun-20 04:31N 51°17' E 004°16'0 0.0
2016-Jun-20 03:31N 51°17' E 004°16'0 0.0
2016-Jun-20 02:28N 51°17' E 004°16'0 0.0
2016-Jun-20 01:28N 51°17' E 004°16'0 0.0
2016-Jun-20 00:31N 51°17' E 004°16'0 0.0
2016-Jun-19 23:31N 51°17' E 004°16'0 0.0
2016-Jun-19 22:31N 51°17' E 004°16'0 0.0
2016-Jun-19 21:31N 51°17' E 004°16'0 0.0
2016-Jun-19 20:31N 51°17' E 004°16'0 0.0
2016-Jun-19 19:31N 51°17' E 004°16'0 0.0
2016-Jun-19 18:28N 51°17' E 004°16'0 0.0
2016-Jun-19 17:31N 51°17' E 004°16'3 3.4
2016-Jun-19 16:34N 51°21' E 004°16'9 8.7
2016-Jun-19 15:34N 51°23' E 004°02'6 6.4
2016-Jun-19 14:33N 51°21' E 003°53'10 9.7
2016-Jun-19 13:34N 51°26' E 003°40'10 9.7
2016-Jun-19 12:34N 51°31' E 003°26'1211.6
2016-Jun-19 11:33N 51°41' E 003°17'8 7.7
2016-Jun-19 10:28N 51°49' E 003°11'1 0.7
2016-Jun-19 09:28N 51°49' E 003°12'4 2.9
2016-Jun-19 08:11N 51°51' E 003°17'15 9.1
2016-Jun-19 06:33N 52°03' E 003°31'9 9.5
2016-Jun-19 05:34N 52°03' E 003°47'8 7.9
2016-Jun-19 04:33N 52°01' E 003°59'3 2.9
2016-Jun-19 03:34N 51°59' E 004°02'0 0.0
2016-Jun-19 02:33N 51°59' E 004°02'0 0.0
2016-Jun-19 01:33N 51°59' E 004°02'0 0.0
2016-Jun-19 00:33N 51°59' E 004°02'0 0.0
2016-Jun-18 23:33N 51°59' E 004°02'0 0.0
2016-Jun-18 22:30N 51°59' E 004°02'0 0.0
2016-Jun-18 21:33N 51°59' E 004°02'0 0.0
2016-Jun-18 20:33N 51°59' E 004°02'0 0.0
2016-Jun-18 19:33N 51°59' E 004°02'0 0.0
2016-Jun-18 18:33N 51°59' E 004°02'1 0.7
2016-Jun-18 17:34N 51°58' E 004°03'6 5.9
2016-Jun-18 16:33N 52°01' E 003°54'6 6.2
2016-Jun-18 15:33N 52°04' E 003°46'9 9.1
2016-Jun-18 14:34N 52°13' E 003°46'1312.9
2016-Jun-18 13:33N 52°26' E 003°50'1615.9
2016-Jun-18 12:33N 52°42' E 003°55'1916.9
2016-Jun-18 11:27N 52°59' E 004°06'  
Track history (hours):
 
Tides and Currents Weather Stations Pressure Air Temp Water Temp Dewpoint Dewpoint Depression Visibility Wind Speed Wind Dir Waves Ship Positions

CMA CGM Homere

Last reported at 2016-Jun-28 10:33 UTC. Time now 2016-Jun-28 11:32 UTC.
Position N 35°31' E 015°49'.

Length 170 m; draft 9.6 m.

Type: Ship (hazmat cat A). MMSI: 235052314.

Date/timePositionNaut miles runAvg speedWind from/ knotsBaromVisibWave heightAir tempDewpointWater temp
2016-Jun-28 10:33N 35°31' E 015°49'1616.3
2016-Jun-28 09:33N 35°35' E 015°30'1616.3
2016-Jun-28 08:33N 35°39' E 015°10'1616.0
2016-Jun-28 07:33N 35°44' E 014°51'1413.8
2016-Jun-28 06:33N 35°48' E 014°35'3 1.2
2016-Jun-28 04:31N 35°49' E 014°32'0 0.0
2016-Jun-28 03:31N 35°49' E 014°32'0 0.0
2016-Jun-28 02:28N 35°49' E 014°32'0 0.0
2016-Jun-28 01:31N 35°49' E 014°32'0 0.0
2016-Jun-28 00:31N 35°49' E 014°32'0 0.0
2016-Jun-27 23:31N 35°49' E 014°32'0 0.0
2016-Jun-27 22:31N 35°49' E 014°32'0 0.0
2016-Jun-27 21:31N 35°49' E 014°32'0 0.0
2016-Jun-27 20:28N 35°49' E 014°32'0 0.0
2016-Jun-27 19:31N 35°49' E 014°32'0 0.0
2016-Jun-27 18:28N 35°49' E 014°32'0 0.0
2016-Jun-27 17:31N 35°49' E 014°32'0 0.0
2016-Jun-27 16:25N 35°49' E 014°32'0 0.0
2016-Jun-27 15:31N 35°49' E 014°32'0 0.0
2016-Jun-27 14:22N 35°49' E 014°32'0 0.0
2016-Jun-27 13:31N 35°49' E 014°32'4 4.0
2016-Jun-27 12:33N 35°50' E 014°37'1212.4
2016-Jun-27 11:34N 36°01' E 014°31'1413.7
2016-Jun-27 10:33N 36°09' E 014°17'1313.2
2016-Jun-27 09:33N 36°15' E 014°03'1313.2
2016-Jun-27 08:34N 36°20' E 013°48'1313.3
2016-Jun-27 07:34N 36°26' E 013°33'1413.6
2016-Jun-27 06:34N 36°32' E 013°18'1514.8
2016-Jun-27 05:33N 36°38' E 013°01'1515.5
2016-Jun-27 04:33N 36°45' E 012°44'2115.8
2016-Jun-27 03:14N 36°54' E 012°20'2816.3
2016-Jun-27 01:32N 37°07' E 011°49'1716.3
2016-Jun-27 00:31N 37°14' E 011°31'1616.2
2016-Jun-26 23:33N 37°22' E 011°14'1615.6
2016-Jun-26 22:32N 37°26' E 010°55'1515.6
2016-Jun-26 21:33N 37°31' E 010°36'1615.7
2016-Jun-26 20:32N 37°34' E 010°16'1515.5
2016-Jun-26 19:33N 37°35' E 009°57'1615.5
2016-Jun-26 18:31N 37°37' E 009°37'17915.0
2016-Jun-26 06:33N 37°32' E 005°51'1413.8
2016-Jun-26 05:33N 37°31' E 005°33'1313.0
2016-Jun-26 04:33N 37°30' E 005°17'1413.5
2016-Jun-26 03:29N 37°28' E 004°59'1313.7
2016-Jun-26 02:33N 37°25' E 004°43'1414.0
2016-Jun-26 01:33N 37°23' E 004°26'1514.2
2016-Jun-26 00:31N 37°19' E 004°08'1414.3
2016-Jun-25 23:31N 37°15' E 003°51'1413.8
2016-Jun-25 22:29N 37°12' E 003°33'1213.5
2016-Jun-25 21:33N 37°09' E 003°18'1312.8
2016-Jun-25 20:34N 37°06' E 003°02'1313.3
2016-Jun-25 19:33N 37°04' E 002°46'1414.1
2016-Jun-25 18:33N 37°01' E 002°29'1414.3
2016-Jun-25 17:33N 36°58' E 002°11'1414.5
2016-Jun-25 16:33N 36°54' E 001°54'1414.2
2016-Jun-25 15:33N 36°51' E 001°36'1414.3
2016-Jun-25 14:33N 36°47' E 001°19'1414.4
2016-Jun-25 13:33N 36°44' E 001°01'1514.4
2016-Jun-25 12:33N 36°41' E 000°44'1313.4
2016-Jun-25 11:33N 36°38' E 000°28'1413.9
2016-Jun-25 10:33N 36°34' E 000°11'1413.9
2016-Jun-25 09:32N 36°31' W 000°06'1414.0
2016-Jun-25 08:34N 36°28' W 000°23'1414.0
2016-Jun-25 07:33N 36°25' W 000°40'1514.2
2016-Jun-25 06:30N 36°21' W 000°58'1313.5
2016-Jun-25 05:32N 36°19' W 001°14'1313.4
2016-Jun-25 04:33N 36°16' W 001°30'1312.8
2016-Jun-25 03:33N 36°13' W 001°45'1612.5
2016-Jun-25 02:18N 36°09' W 002°04'1212.7
2016-Jun-25 01:23N 36°09' W 002°19'14314.1
2016-Jun-24 15:13N 35°59' W 005°15'1116.0
2016-Jun-24 14:33N 35°57' W 005°28'8015.8
2016-Jun-24 09:31N 36°02' W 007°06'2417.1
2016-Jun-24 08:07N 36°09' W 007°34'1017.2
2016-Jun-24 07:33N 36°11' W 007°46'5317.4
2016-Jun-24 04:31N 36°25' W 008°49'1617.0
2016-Jun-24 03:33N 36°31' W 009°09'2116.3
2016-Jun-24 02:17N 36°43' W 009°29'1316.6
2016-Jun-24 01:32N 36°54' W 009°37'1817.9
2016-Jun-24 00:33N 37°11' W 009°42'1818.4
2016-Jun-23 23:33N 37°29' W 009°48'1818.2
2016-Jun-23 22:33N 37°47' W 009°52'1918.2
2016-Jun-23 21:30N 38°05' W 009°57'1718.3
2016-Jun-23 20:33N 38°22' W 010°02'1818.0
2016-Jun-23 19:33N 38°40' W 010°07'55317.3
2016-Jun-22 11:33N 47°35' W 006°55'5618.7
2016-Jun-22 08:33N 48°24' W 006°16'3917.5
2016-Jun-22 06:20N 48°56' W 005°43'9613.8
2016-Jun-21 23:23N 49°44' W 003°36'1517.5
2016-Jun-21 22:33N 49°52' W 003°16'1616.1
2016-Jun-21 21:34N 49°59' W 002°54'1515.0
2016-Jun-21 20:34N 50°02' W 002°31'1614.2
2016-Jun-21 19:24N 50°03' W 002°05'2915.2
2016-Jun-21 17:31N 49°52' W 001°24'1616.3
2016-Jun-21 16:34N 49°45' W 001°02'1616.3
2016-Jun-21 15:34N 49°40' W 000°38'10 9.9
2016-Jun-21 14:33N 49°36' W 000°24'1010.2
2016-Jun-21 13:33N 49°32' W 000°10'1110.9
2016-Jun-21 12:33N 49°28' E 000°06'3 2.7
2016-Jun-21 11:31N 49°27' E 000°10'0 0.0
2016-Jun-21 10:31N 49°27' E 000°10'0 0.0
2016-Jun-21 09:31N 49°27' E 000°10'0 0.0
2016-Jun-21 08:31N 49°27' E 000°10'0 0.0
2016-Jun-21 07:31N 49°27' E 000°10'0 0.0
2016-Jun-21 06:31N 49°27' E 000°10'1 0.7
2016-Jun-21 04:33N 49°28' E 000°08'1110.6
2016-Jun-21 03:34N 49°32' W 000°07'8 7.9
2016-Jun-21 02:33N 49°35' W 000°18'10 9.8
2016-Jun-21 01:33N 49°43' W 000°27'10 9.9
2016-Jun-21 00:33N 49°51' W 000°35'7 7.2
2016-Jun-20 23:33N 49°56' W 000°27'1111.3
2016-Jun-20 22:34N 50°04' W 000°14'1212.3
2016-Jun-20 21:33N 50°15' W 000°04'1313.3
2016-Jun-20 20:34N 50°28' E 000°00'1414.0
2016-Jun-20 19:33N 50°32' E 000°21'1515.2
2016-Jun-20 18:33N 50°39' E 000°42'2416.3
2016-Jun-20 17:04N 50°53' E 001°14'816.5
2016-Jun-20 16:33N 50°59' E 001°23'1515.2
2016-Jun-20 15:33N 51°09' E 001°41'1414.0
2016-Jun-20 14:34N 51°20' E 001°54'1111.3
2016-Jun-20 13:34N 51°23' E 002°12'1312.8
2016-Jun-20 12:33N 51°23' E 002°32'1211.7
2016-Jun-20 11:34N 51°22' E 002°51'1111.0
2016-Jun-20 10:34N 51°24' E 003°08'1312.8
2016-Jun-20 09:34N 51°25' E 003°29'9 8.7
2016-Jun-20 08:34N 51°25' E 003°43'1010.1
2016-Jun-20 07:34N 51°26' E 003°59'1211.5
2016-Jun-20 06:33N 51°21' E 004°15'4 3.4
2016-Jun-20 05:31N 51°17' E 004°16'0 0.0
2016-Jun-20 04:31N 51°17' E 004°16'0 0.0
2016-Jun-20 03:31N 51°17' E 004°16'0 0.0
2016-Jun-20 02:28N 51°17' E 004°16'0 0.0
2016-Jun-20 01:28N 51°17' E 004°16'0 0.0
2016-Jun-20 00:31N 51°17' E 004°16'0 0.0
2016-Jun-19 23:31N 51°17' E 004°16'0 0.0
2016-Jun-19 22:31N 51°17' E 004°16'0 0.0
2016-Jun-19 21:31N 51°17' E 004°16'0 0.0
2016-Jun-19 20:31N 51°17' E 004°16'0 0.0
2016-Jun-19 19:31N 51°17' E 004°16'0 0.0
2016-Jun-19 18:28N 51°17' E 004°16'0 0.0
2016-Jun-19 17:31N 51°17' E 004°16'3 3.4
2016-Jun-19 16:34N 51°21' E 004°16'9 8.7
2016-Jun-19 15:34N 51°23' E 004°02'6 6.4
2016-Jun-19 14:33N 51°21' E 003°53'10 9.7
2016-Jun-19 13:34N 51°26' E 003°40'10 9.7
2016-Jun-19 12:34N 51°31' E 003°26'1211.6
2016-Jun-19 11:33N 51°41' E 003°17'8 7.7
2016-Jun-19 10:28N 51°49' E 003°11'1 0.7
2016-Jun-19 09:28N 51°49' E 003°12'4 2.9
2016-Jun-19 08:11N 51°51' E 003°17'15 9.1
2016-Jun-19 06:33N 52°03' E 003°31'9 9.5
2016-Jun-19 05:34N 52°03' E 003°47'8 7.9
2016-Jun-19 04:33N 52°01' E 003°59'3 2.9
2016-Jun-19 03:34N 51°59' E 004°02'0 0.0
2016-Jun-19 02:33N 51°59' E 004°02'0 0.0
2016-Jun-19 01:33N 51°59' E 004°02'0 0.0
2016-Jun-19 00:33N 51°59' E 004°02'0 0.0
2016-Jun-18 23:33N 51°59' E 004°02'0 0.0
2016-Jun-18 22:30N 51°59' E 004°02'0 0.0
2016-Jun-18 21:33N 51°59' E 004°02'0 0.0
2016-Jun-18 20:33N 51°59' E 004°02'0 0.0
2016-Jun-18 19:33N 51°59' E 004°02'0 0.0
2016-Jun-18 18:33N 51°59' E 004°02'1 0.7
2016-Jun-18 17:34N 51°58' E 004°03'6 5.9
2016-Jun-18 16:33N 52°01' E 003°54'6 6.2
2016-Jun-18 15:33N 52°04' E 003°46'9 9.1
2016-Jun-18 14:34N 52°13' E 003°46'1312.9
2016-Jun-18 13:33N 52°26' E 003°50'1615.9
2016-Jun-18 12:33N 52°42' E 003°55'1916.9
2016-Jun-18 11:27N 52°59' E 004°06'  

Dump ship's entire track history